createdAt,value
2023-04-12T00:00:54.449Z,9.30
2023-04-12T00:03:27.222Z,9.30
2023-04-12T00:06:03.329Z,9.40
2023-04-12T00:08:38.756Z,9.40
2023-04-12T00:11:14.382Z,9.40
2023-04-12T00:13:46.457Z,9.50
2023-04-12T00:16:39.171Z,9.50
2023-04-12T00:19:11.599Z,9.50
2023-04-12T00:21:44.289Z,9.50
2023-04-12T00:24:36.019Z,9.50
2023-04-12T00:27:10.032Z,9.50
2023-04-12T00:29:42.097Z,9.50
2023-04-12T00:32:14.330Z,9.50
2023-04-12T00:34:46.639Z,9.50
2023-04-12T00:37:18.599Z,9.50
2023-04-12T00:39:50.947Z,9.40
2023-04-12T00:42:23.010Z,9.40
2023-04-12T00:44:54.926Z,9.40
2023-04-12T00:47:29.630Z,9.40
2023-04-12T00:50:02.383Z,9.30
2023-04-12T00:52:35.882Z,9.20
2023-04-12T00:55:10.305Z,9.20
2023-04-12T00:58:07.355Z,9.10
2023-04-12T01:00:40.114Z,9.00
2023-04-12T01:03:13.891Z,8.90
2023-04-12T01:06:09.719Z,8.90
2023-04-12T01:09:16.520Z,8.80
2023-04-12T01:12:06.670Z,8.70
2023-04-12T01:15:12.110Z,8.70
2023-04-12T01:17:48.001Z,8.60
2023-04-12T01:20:31.928Z,8.60
2023-04-12T01:23:08.985Z,8.50
2023-04-12T01:25:48.289Z,8.50
2023-04-12T01:28:33.950Z,8.40
2023-04-12T01:31:10.638Z,8.40
2023-04-12T01:33:46.139Z,8.40
2023-04-12T01:36:22.980Z,8.40
2023-04-12T01:38:58.113Z,8.40
2023-04-12T01:41:32.947Z,8.40
2023-04-12T01:44:13.617Z,8.40
2023-04-12T01:46:48.548Z,8.40
2023-04-12T01:49:25.728Z,8.40
2023-04-12T01:52:09.580Z,8.40
2023-04-12T01:54:48.508Z,8.40
2023-04-12T01:57:22.724Z,8.30
2023-04-12T01:59:58.373Z,8.30
2023-04-12T02:02:36.207Z,8.30
2023-04-12T02:05:10.073Z,8.30
2023-04-12T02:07:43.358Z,8.30
2023-04-12T02:10:16.509Z,8.20
2023-04-12T02:13:00.617Z,8.20
2023-04-12T02:15:34.295Z,8.20
2023-04-12T02:18:08.053Z,8.10
2023-04-12T02:20:40.845Z,8.20
2023-04-12T02:23:13.337Z,8.10
2023-04-12T02:25:46.707Z,8.10
2023-04-12T02:28:19.054Z,8.10
2023-04-12T02:31:30.607Z,8.10
2023-04-12T02:34:05.047Z,8.10
2023-04-12T02:36:37.743Z,8.10
2023-04-12T02:39:10.344Z,8.10
2023-04-12T02:41:42.258Z,8.10
2023-04-12T02:44:14.813Z,8.10
2023-04-12T02:46:46.963Z,8.00
2023-04-12T02:49:18.988Z,8.00
2023-04-12T02:51:51.345Z,8.00
2023-04-12T02:54:23.403Z,8.00
2023-04-12T02:56:55.434Z,8.00
2023-04-12T02:59:27.446Z,8.00
2023-04-12T03:02:00.078Z,8.00
2023-04-12T03:04:32.925Z,8.00
2023-04-12T03:07:08.153Z,8.00
2023-04-12T03:09:42.618Z,7.90
2023-04-12T03:12:17.368Z,7.90
2023-04-12T03:14:49.408Z,7.90
2023-04-12T03:17:21.486Z,7.90
2023-04-12T03:19:53.777Z,7.90
2023-04-12T03:22:26.146Z,7.90
2023-04-12T03:24:58.191Z,7.90
2023-04-12T03:27:30.235Z,7.90
2023-04-12T03:30:02.485Z,8.00
2023-04-12T03:32:35.659Z,7.90
2023-04-12T03:35:12.095Z,7.90
2023-04-12T03:37:44.274Z,7.90
2023-04-12T03:40:16.448Z,7.90
2023-04-12T03:42:48.689Z,7.90
2023-04-12T03:45:20.830Z,7.90
2023-04-12T03:47:53.338Z,7.90
2023-04-12T03:50:25.593Z,7.90
2023-04-12T03:53:00.169Z,7.90
2023-04-12T03:55:32.156Z,7.90
2023-04-12T03:58:05.106Z,7.90
2023-04-12T04:00:37.148Z,7.90
2023-04-12T04:03:09.599Z,7.90
2023-04-12T04:05:42.664Z,8.00
2023-04-12T04:08:15.075Z,7.90
2023-04-12T04:10:47.184Z,7.90
2023-04-12T04:13:19.374Z,7.90
2023-04-12T04:15:58.892Z,7.90
2023-04-12T04:18:35.998Z,7.90
2023-04-12T04:21:09.112Z,7.90
2023-04-12T04:23:44.866Z,7.80
2023-04-12T04:26:19.144Z,7.80
2023-04-12T04:28:51.796Z,7.80
2023-04-12T04:31:26.319Z,7.80
2023-04-12T04:33:59.360Z,7.80
2023-04-12T04:36:35.787Z,7.80
2023-04-12T04:39:09.233Z,7.80
2023-04-12T04:41:41.616Z,7.80
2023-04-12T04:44:14.406Z,7.80
2023-04-12T04:46:48.809Z,7.80
2023-04-12T04:49:21.197Z,7.80
2023-04-12T04:51:54.047Z,7.80
2023-04-12T04:54:26.161Z,7.80
2023-04-12T04:56:58.306Z,7.80
2023-04-12T04:59:31.219Z,7.80
2023-04-12T05:02:04.488Z,7.80
2023-04-12T05:04:37.558Z,7.80
2023-04-12T05:07:48.218Z,7.80
2023-04-12T05:10:20.275Z,7.80
2023-04-12T05:12:52.410Z,7.80
2023-04-12T05:15:24.485Z,7.70
2023-04-12T05:17:56.879Z,7.70
2023-04-12T05:20:28.993Z,7.80
2023-04-12T05:23:03.580Z,7.70
2023-04-12T05:25:35.845Z,7.70
2023-04-12T05:28:14.141Z,7.70
2023-04-12T05:30:47.569Z,7.70
2023-04-12T05:33:19.603Z,7.70
2023-04-12T05:35:51.996Z,7.70
2023-04-12T05:38:24.148Z,7.70
2023-04-12T05:40:56.302Z,7.70
2023-04-12T05:43:28.467Z,7.70
2023-04-12T05:46:00.909Z,7.70
2023-04-12T05:48:32.947Z,7.70
2023-04-12T05:51:05.458Z,7.70
2023-04-12T05:53:52.196Z,7.70
2023-04-12T05:56:24.224Z,7.70
2023-04-12T05:59:01.295Z,7.70
2023-04-12T06:01:34.391Z,7.70
2023-04-12T06:04:07.845Z,7.70
2023-04-12T06:06:51.756Z,7.70
2023-04-12T06:09:23.713Z,7.70
2023-04-12T06:11:57.330Z,7.70
2023-04-12T06:14:29.402Z,7.80
2023-04-12T06:17:01.871Z,7.80
2023-04-12T06:19:34.169Z,7.70
2023-04-12T06:22:06.213Z,7.80
2023-04-12T06:24:38.306Z,7.80
2023-04-12T06:27:10.360Z,7.80
2023-04-12T06:29:42.582Z,7.80
2023-04-12T06:32:15.415Z,7.80
2023-04-12T06:34:47.581Z,7.80
2023-04-12T06:37:19.619Z,7.80
2023-04-12T06:39:52.728Z,7.90
2023-04-12T06:42:25.065Z,7.80
2023-04-12T06:44:57.188Z,7.90
2023-04-12T06:47:30.684Z,7.90
2023-04-12T06:50:03.162Z,7.90
2023-04-12T06:52:53.605Z,7.90
2023-04-12T06:55:27.322Z,8.00
2023-04-12T06:58:00.850Z,8.00
2023-04-12T07:01:20.733Z,8.10
2023-04-12T07:03:53.180Z,8.10
2023-04-12T07:06:26.404Z,8.10
2023-04-12T07:08:59.439Z,8.20
2023-04-12T07:11:31.960Z,8.20
2023-04-12T07:14:04.114Z,8.20
2023-04-12T07:16:36.535Z,8.30
2023-04-12T07:19:08.634Z,8.30
2023-04-12T07:21:41.460Z,8.40
2023-04-12T07:24:13.654Z,8.40
2023-04-12T07:26:46.151Z,8.40
2023-04-12T07:29:18.288Z,8.50
2023-04-12T07:31:50.930Z,8.50
2023-04-12T07:34:24.166Z,8.50
2023-04-12T07:36:56.619Z,8.60
2023-04-12T07:39:29.957Z,8.60
2023-04-12T07:42:02.599Z,8.70
2023-04-12T07:44:37.121Z,8.70
2023-04-12T07:47:10.761Z,8.70
2023-04-12T07:49:42.895Z,8.80
2023-04-12T07:52:33.674Z,8.80
2023-04-12T07:55:05.870Z,8.80
2023-04-12T07:57:38.544Z,8.80
2023-04-12T08:00:11.689Z,8.90
2023-04-12T08:02:44.321Z,8.90
2023-04-12T08:05:16.657Z,8.90
2023-04-12T08:07:49.160Z,8.90
2023-04-12T08:10:21.624Z,9.00
2023-04-12T08:12:53.901Z,9.00
2023-04-12T08:15:26.596Z,9.10
2023-04-12T08:17:58.920Z,9.10
2023-04-12T08:20:32.926Z,9.20
2023-04-12T08:23:05.258Z,9.20
2023-04-12T08:25:39.186Z,9.20
2023-04-12T08:28:12.374Z,9.20
2023-04-12T08:30:45.069Z,9.30
2023-04-12T08:33:17.228Z,9.30
2023-04-12T08:35:49.723Z,9.30
2023-04-12T08:38:37.308Z,9.40
2023-04-12T08:41:19.114Z,9.40
2023-04-12T08:43:53.041Z,9.40
2023-04-12T08:46:27.260Z,9.40
2023-04-12T08:49:01.273Z,9.50
2023-04-12T08:51:36.312Z,9.50
2023-04-12T08:54:09.462Z,9.60
2023-04-12T08:56:44.201Z,9.60
2023-04-12T08:59:18.063Z,9.60
2023-04-12T09:01:51.716Z,9.70
2023-04-12T09:04:30.006Z,9.70
2023-04-12T09:07:03.131Z,9.80
2023-04-12T09:09:46.878Z,9.80
2023-04-12T09:12:22.900Z,9.80
2023-04-12T09:15:13.171Z,9.90
2023-04-12T09:18:02.828Z,9.90
2023-04-12T09:20:39.331Z,9.90
2023-04-12T09:23:19.573Z,10.00
2023-04-12T09:25:53.861Z,10.00
2023-04-12T09:28:27.881Z,10.10
2023-04-12T09:31:01.548Z,10.20
2023-04-12T09:33:38.795Z,10.30
2023-04-12T09:36:14.609Z,10.30
2023-04-12T09:39:02.060Z,10.40
2023-04-12T09:41:36.764Z,10.50
2023-04-12T09:44:09.740Z,10.60
2023-04-12T09:47:01.029Z,10.70
2023-04-12T09:49:44.485Z,10.80
2023-04-12T09:52:17.039Z,10.80
2023-04-12T09:54:51.494Z,10.80
2023-04-12T09:57:24.936Z,10.90
2023-04-12T10:00:02.492Z,11.00
2023-04-12T10:02:36.159Z,11.00
2023-04-12T10:05:13.355Z,11.10
2023-04-12T10:07:48.781Z,11.20
2023-04-12T10:10:23.119Z,11.30
2023-04-12T10:12:56.169Z,11.40
2023-04-12T10:15:30.691Z,11.50
2023-04-12T10:18:04.492Z,11.60
2023-04-12T10:20:42.252Z,11.70
2023-04-12T10:23:14.794Z,11.70
2023-04-12T10:26:11.393Z,11.80
2023-04-12T10:28:55.479Z,11.90
2023-04-12T10:31:47.720Z,12.00
2023-04-12T10:34:27.406Z,12.10
2023-04-12T10:37:01.939Z,12.10
2023-04-12T10:39:43.325Z,12.20
2023-04-12T10:42:33.814Z,12.20
2023-04-12T10:45:24.273Z,12.20
2023-04-12T10:48:06.882Z,12.30
2023-04-12T10:50:39.144Z,12.50
2023-04-12T10:53:17.193Z,12.50
2023-04-12T10:55:52.700Z,12.60
2023-04-12T10:58:50.129Z,12.50
2023-04-12T11:01:26.437Z,12.60
2023-04-12T11:04:09.561Z,12.60
2023-04-12T11:06:53.835Z,12.60
2023-04-12T11:09:34.417Z,12.70
2023-04-12T11:12:35.811Z,12.90
2023-04-12T11:15:27.170Z,13.10
2023-04-12T11:18:07.336Z,13.10
2023-04-12T11:20:42.987Z,13.30
2023-04-12T11:23:15.608Z,13.30
2023-04-12T11:25:54.379Z,13.30
2023-04-12T11:28:30.458Z,13.30
2023-04-12T11:31:03.971Z,13.20
2023-04-12T11:34:00.948Z,13.20
2023-04-12T11:36:33.194Z,13.20
2023-04-12T11:39:05.250Z,13.30
2023-04-12T11:41:38.252Z,13.30
2023-04-12T11:44:21.847Z,13.40
2023-04-12T11:46:55.246Z,13.50
2023-04-12T11:49:30.749Z,13.60
2023-04-12T11:52:06.187Z,13.60
2023-04-12T11:54:41.786Z,13.70
2023-04-12T11:57:19.094Z,13.70
2023-04-12T11:59:52.390Z,13.70
2023-04-12T12:02:32.351Z,13.70
2023-04-12T12:05:08.684Z,13.70
2023-04-12T12:07:42.178Z,13.70
2023-04-12T12:10:23.922Z,13.70
2023-04-12T12:13:11.752Z,13.80
2023-04-12T12:15:46.200Z,13.70
2023-04-12T12:18:18.480Z,13.70
2023-04-12T12:20:56.058Z,13.70
2023-04-12T12:23:32.291Z,13.70
2023-04-12T12:26:18.317Z,13.80
2023-04-12T12:28:57.415Z,14.00
2023-04-12T12:31:33.106Z,14.20
2023-04-12T12:34:08.914Z,14.30
2023-04-12T12:36:44.499Z,14.30
2023-04-12T12:39:25.183Z,14.30
2023-04-12T12:41:57.506Z,14.30
2023-04-12T12:44:30.122Z,14.50
2023-04-12T12:47:10.031Z,14.80
2023-04-12T12:49:45.682Z,15.10
2023-04-12T12:52:18.142Z,15.30
2023-04-12T12:54:51.733Z,15.50
2023-04-12T12:57:24.025Z,15.70
2023-04-12T12:59:56.571Z,15.80
2023-04-12T13:02:29.509Z,15.80
2023-04-12T13:05:03.227Z,15.80
2023-04-12T13:07:36.989Z,15.60
2023-04-12T13:10:10.085Z,15.40
2023-04-12T13:12:43.047Z,15.30
2023-04-12T13:17:54.980Z,15.30
2023-04-12T13:20:29.739Z,15.40
2023-04-12T13:23:02.040Z,15.60
2023-04-12T13:25:34.479Z,15.70
2023-04-12T13:28:07.194Z,15.70
2023-04-12T13:30:39.522Z,15.60
2023-04-12T13:33:14.287Z,15.40
2023-04-12T13:35:48.114Z,15.20
2023-04-12T13:38:21.226Z,15.10
2023-04-12T13:40:53.412Z,15.00
2023-04-12T13:43:27.676Z,15.00
2023-04-12T13:45:59.835Z,15.10
2023-04-12T13:48:32.641Z,15.20
2023-04-12T13:51:05.161Z,15.30
2023-04-12T13:53:37.765Z,15.50
2023-04-12T13:56:11.898Z,15.50
2023-04-12T13:58:43.992Z,15.60
2023-04-12T14:01:16.662Z,15.60
2023-04-12T14:03:49.627Z,15.50
2023-04-12T14:06:22.927Z,15.40
2023-04-12T14:08:55.237Z,15.20
2023-04-12T14:11:27.883Z,15.20
2023-04-12T14:14:00.281Z,15.20
2023-04-12T14:16:32.805Z,15.10
2023-04-12T14:19:06.020Z,15.10
2023-04-12T14:21:38.677Z,15.00
2023-04-12T14:24:11.326Z,15.00
2023-04-12T14:26:45.008Z,15.10
2023-04-12T14:29:17.917Z,15.20
2023-04-12T14:31:50.247Z,15.40
2023-04-12T14:34:22.817Z,15.60
2023-04-12T14:36:56.648Z,15.60
2023-04-12T14:39:30.979Z,15.60
2023-04-12T14:42:03.946Z,15.60
2023-04-12T14:44:37.019Z,15.60
2023-04-12T14:47:09.486Z,15.70
2023-04-12T14:49:41.976Z,15.70
2023-04-12T14:52:14.560Z,15.70
2023-04-12T14:54:46.893Z,15.70
2023-04-12T14:57:19.380Z,15.60
2023-04-12T14:59:51.927Z,15.70
2023-04-12T15:02:26.372Z,15.60
2023-04-12T15:04:59.283Z,15.50
2023-04-12T15:07:35.582Z,15.40
2023-04-12T15:10:08.665Z,15.30
2023-04-12T15:12:42.690Z,15.20
2023-04-12T15:15:15.730Z,15.10
2023-04-12T15:17:48.289Z,14.70
2023-04-12T15:20:20.576Z,13.80
2023-04-12T15:22:52.790Z,13.20
2023-04-12T15:25:25.120Z,12.60
2023-04-12T15:27:58.239Z,12.30
2023-04-12T15:30:31.828Z,11.90
2023-04-12T15:33:04.178Z,11.70
2023-04-12T15:35:36.422Z,11.60
2023-04-12T15:38:14.820Z,11.40
2023-04-12T15:40:55.331Z,11.40
2023-04-12T15:43:31.207Z,11.20
2023-04-12T15:46:03.579Z,11.10
2023-04-12T15:48:38.791Z,11.10
2023-04-12T15:51:11.113Z,11.00
2023-04-12T15:53:45.025Z,11.00
2023-04-12T15:56:20.176Z,11.00
2023-04-12T15:58:57.263Z,11.00
2023-04-12T16:01:31.501Z,11.10
2023-04-12T16:04:05.584Z,11.20
2023-04-12T16:06:38.364Z,11.20
2023-04-12T16:09:14.798Z,11.30
2023-04-12T16:11:48.400Z,11.40
2023-04-12T16:14:22.804Z,11.50
2023-04-12T16:16:59.580Z,11.60
2023-04-12T16:19:33.970Z,11.70
2023-04-12T16:22:06.758Z,11.80
2023-04-12T16:24:40.121Z,11.80
2023-04-12T16:27:12.765Z,11.70
2023-04-12T16:29:45.651Z,11.70
2023-04-12T16:32:18.820Z,11.70
2023-04-12T16:34:54.532Z,11.70
2023-04-12T16:37:29.623Z,11.60
2023-04-12T16:40:02.251Z,11.60
2023-04-12T16:42:44.249Z,11.60
2023-04-12T16:45:18.165Z,11.60
2023-04-12T16:47:53.222Z,11.60
2023-04-12T16:50:26.716Z,11.50
2023-04-12T16:53:18.946Z,11.50
2023-04-12T16:55:52.019Z,11.50
2023-04-12T16:58:25.161Z,11.50
2023-04-12T17:00:58.459Z,11.50
2023-04-12T17:03:31.196Z,11.50
2023-04-12T17:06:04.463Z,11.50
2023-04-12T17:08:37.366Z,11.40
2023-04-12T17:11:10.310Z,11.50
2023-04-12T17:13:45.058Z,11.40
2023-04-12T17:16:17.969Z,11.40
2023-04-12T17:18:50.819Z,11.40
2023-04-12T17:21:24.971Z,11.40
2023-04-12T17:23:58.630Z,11.40
2023-04-12T17:26:31.700Z,11.30
2023-04-12T17:29:06.650Z,11.30
2023-04-12T17:31:39.692Z,11.20
2023-04-12T17:34:14.220Z,11.20
2023-04-12T17:37:11.431Z,11.20
2023-04-12T17:39:44.862Z,11.10
2023-04-12T17:42:21.059Z,11.10
2023-04-12T17:44:54.896Z,11.10
2023-04-12T17:47:27.571Z,11.00
2023-04-12T17:50:00.976Z,11.00
2023-04-12T17:52:34.537Z,11.00
2023-04-12T17:55:09.524Z,11.00
2023-04-12T17:57:45.519Z,11.00
2023-04-12T18:00:19.387Z,10.90
2023-04-12T18:02:54.587Z,10.90
2023-04-12T18:05:30.655Z,10.90
2023-04-12T18:08:09.343Z,10.90
2023-04-12T18:10:43.110Z,10.90
2023-04-12T18:13:17.641Z,10.80
2023-04-12T18:15:51.239Z,10.80
2023-04-12T18:18:23.931Z,10.70
2023-04-12T18:20:57.385Z,10.70
2023-04-12T19:44:10.668Z,9.70
2023-04-12T19:46:48.675Z,9.60
2023-04-12T19:49:24.964Z,9.70
2023-04-12T19:51:59.509Z,9.60
2023-04-12T19:54:35.804Z,9.60
2023-04-12T19:57:10.381Z,9.60
2023-04-12T19:59:46.290Z,9.60
2023-04-12T20:02:20.996Z,9.60
2023-04-12T20:04:55.094Z,9.60
2023-04-12T20:07:28.488Z,9.60
2023-04-12T20:10:04.569Z,9.60
2023-04-12T20:12:39.727Z,9.60
2023-04-12T20:15:15.294Z,9.60
2023-04-12T20:17:52.503Z,9.60
2023-04-12T20:20:26.196Z,9.60
2023-04-12T20:23:02.158Z,9.60
2023-04-12T20:25:38.789Z,9.60
2023-04-12T20:28:14.234Z,9.60
2023-04-12T20:30:48.498Z,9.60
2023-04-12T20:33:21.817Z,9.60
2023-04-12T20:35:55.196Z,9.70
2023-04-12T20:38:31.032Z,9.70
2023-04-12T20:41:05.665Z,9.70
2023-04-12T20:43:46.883Z,9.70
2023-04-12T20:46:21.168Z,9.70
2023-04-12T20:48:58.848Z,9.70
2023-04-12T20:51:32.346Z,9.60
2023-04-12T20:54:05.068Z,9.50
2023-04-12T20:56:38.692Z,9.30
2023-04-12T20:59:11.783Z,9.10
2023-04-12T21:01:46.095Z,8.90
2023-04-12T21:04:36.685Z,8.80
2023-04-12T21:07:11.407Z,8.60
2023-04-12T21:09:44.298Z,8.50
2023-04-12T21:12:17.245Z,8.40
2023-04-12T21:14:51.598Z,8.40
2023-04-12T21:17:25.357Z,8.30
2023-04-12T21:19:59.363Z,8.30
2023-04-12T21:22:32.674Z,8.30
2023-04-12T21:25:07.813Z,8.20
2023-04-12T21:27:51.847Z,8.20
2023-04-12T21:30:25.370Z,8.20
2023-04-12T21:32:58.705Z,8.20
2023-04-12T21:35:33.589Z,8.10
2023-04-12T21:38:06.756Z,8.10
2023-04-12T21:40:39.664Z,8.10
2023-04-12T21:43:12.309Z,8.10
2023-04-12T21:45:45.629Z,8.10
2023-04-12T21:48:18.514Z,8.10
2023-04-12T21:50:57.137Z,8.10
2023-04-12T21:53:29.957Z,8.10
2023-04-12T21:56:02.485Z,8.00
2023-04-12T21:58:36.271Z,8.10
2023-04-12T22:01:09.446Z,8.10
2023-04-12T22:03:43.994Z,8.10
2023-04-12T22:06:16.938Z,8.10
2023-04-12T22:08:50.419Z,8.10
2023-04-12T22:11:22.887Z,8.10
2023-04-12T22:13:55.467Z,8.00
2023-04-12T22:16:28.368Z,8.10
2023-04-12T22:19:00.754Z,8.10
2023-04-12T22:21:33.598Z,8.10
2023-04-12T22:24:08.331Z,8.10
2023-04-12T22:26:41.128Z,8.10
2023-04-12T22:29:13.406Z,8.10
2023-04-12T22:31:48.365Z,8.10
2023-04-12T22:34:21.249Z,8.00
2023-04-12T22:36:58.979Z,8.00
2023-04-12T22:39:32.490Z,8.00
2023-04-12T22:42:06.471Z,8.00
2023-04-12T22:44:38.615Z,8.00
2023-04-12T22:47:11.156Z,7.90
2023-04-12T22:49:46.600Z,7.90
2023-04-12T22:52:24.621Z,7.90
2023-04-12T22:54:57.290Z,7.90
2023-04-12T22:57:29.450Z,7.90
2023-04-12T23:00:02.430Z,7.90
2023-04-12T23:02:37.789Z,7.90
2023-04-12T23:05:10.618Z,7.90
2023-04-12T23:07:44.473Z,7.90
2023-04-12T23:10:16.714Z,7.80
2023-04-12T23:12:54.077Z,7.80
2023-04-12T23:15:26.289Z,7.70
2023-04-12T23:18:01.638Z,7.70
2023-04-12T23:20:38.405Z,7.70
2023-04-12T23:23:11.040Z,7.60
2023-04-12T23:25:43.401Z,7.60
2023-04-12T23:28:26.533Z,7.50
2023-04-12T23:31:01.991Z,7.50
2023-04-12T23:33:34.329Z,7.50
2023-04-12T23:36:06.796Z,7.40
2023-04-12T23:38:40.785Z,7.40
2023-04-12T23:41:15.226Z,7.40
2023-04-12T23:43:48.200Z,7.30
2023-04-12T23:46:26.318Z,7.30
2023-04-12T23:48:58.615Z,7.30
2023-04-12T23:51:30.756Z,7.30
2023-04-12T23:54:03.335Z,7.20
2023-04-12T23:56:35.401Z,7.20
2023-04-12T23:59:07.810Z,7.20
